Flagler Beach, Florida
Current Conditions -  °F | °C
As of 9:53 AM on Monday 24 Nov 2014 (Local Time) from KDAB Reporting Station
Scattered Clouds Scattered Clouds  
Wind Chill: 80°   Ceiling: Unl
Heat Index: 84°   Visibility: 10mi
Dew Point: 72°   Wind: 12mph
Humidity: 76%   Direction: 190°S
Pressure: 29.98"   Gusts: 20mph
Location:  29.47°N, 81.13°W
Report Text: KDAB 241453Z 19010G17KT 10SM SCT017 SCT021 27/22 A2998 RMK AO2 SLP152 T02670222 51008
Loading
Personal Weather Stations






























Interactive Weather Map New forecast layout! Learn more

10-Day Weather Forecast

Advertisements
Track Severe Weather on mobile